createdAt,value
2022-11-30T00:01:15.551Z,96358.13
2022-11-30T00:03:49.603Z,96361.91
2022-11-30T00:06:24.036Z,96355.78
2022-11-30T00:08:59.433Z,96357.69
2022-11-30T00:11:32.858Z,96349.22
2022-11-30T00:14:05.956Z,96353.44
2022-11-30T00:16:39.744Z,96346.84
2022-11-30T00:19:15.409Z,96353.75
2022-11-30T00:21:49.444Z,96351.09
2022-11-30T00:24:23.849Z,96353.75
2022-11-30T00:26:56.763Z,96346.53
2022-11-30T00:29:29.900Z,96355.31
2022-11-30T00:32:03.230Z,96351.09
2022-11-30T00:34:36.104Z,96346.53
2022-11-30T00:37:10.139Z,96348.09
2022-11-30T00:39:44.505Z,96347.00
2022-11-30T00:42:17.662Z,96358.13
2022-11-30T00:44:50.566Z,96339.16
2022-11-30T00:47:23.660Z,96344.47
2022-11-30T00:49:56.507Z,96339.31
2022-11-30T00:52:30.716Z,96339.00
2022-11-30T00:55:05.533Z,96344.00
2022-11-30T00:57:38.757Z,96350.88
2022-11-30T01:00:12.993Z,96348.69
2022-11-30T01:02:46.312Z,96356.38
2022-11-30T01:05:19.368Z,96351.84
2022-11-30T01:07:53.029Z,96343.06
2022-11-30T01:10:27.567Z,96348.88
2022-11-30T01:13:00.733Z,96346.50
2022-11-30T01:15:37.679Z,96347.59
2022-11-30T01:18:11.419Z,96348.69
2022-11-30T01:20:44.754Z,96352.78
2022-11-30T01:23:18.011Z,96358.75
2022-11-30T01:26:02.639Z,96356.41
2022-11-30T01:28:36.804Z,96357.81
2022-11-30T01:31:11.881Z,96359.25
2022-11-30T01:33:45.149Z,96357.22
2022-11-30T01:36:19.724Z,96352.19
2022-11-30T01:38:55.102Z,96361.16
2022-11-30T01:41:30.812Z,96363.03
2022-11-30T01:44:37.231Z,96361.47
2022-11-30T01:47:13.112Z,96362.88
2022-11-30T01:49:49.655Z,96361.78
2022-11-30T01:52:28.033Z,96368.66
2022-11-30T01:55:09.738Z,96367.88
2022-11-30T01:57:48.703Z,96366.94
2022-11-30T02:00:22.700Z,96365.38
2022-11-30T02:03:02.113Z,96368.50
2022-11-30T02:05:39.819Z,96370.06
2022-11-30T02:08:13.578Z,96363.63
2022-11-30T02:10:51.106Z,96364.09
2022-11-30T02:13:56.852Z,96371.00
2022-11-30T02:16:41.285Z,96365.69
2022-11-30T02:19:42.482Z,96361.13
2022-11-30T02:22:28.143Z,96365.38
2022-11-30T02:25:09.724Z,96365.03
2022-11-30T02:27:59.529Z,96364.25
2022-11-30T02:30:37.094Z,96362.69
2022-11-30T02:33:13.550Z,96361.91
2022-11-30T02:35:54.790Z,96367.25
2022-11-30T02:38:29.760Z,96362.22
2022-11-30T02:41:03.941Z,96369.91
2022-11-30T02:43:37.565Z,96367.25
2022-11-30T02:46:17.905Z,96373.50
2022-11-30T02:48:58.034Z,96370.53
2022-11-30T02:51:35.322Z,96370.53
2022-11-30T02:54:08.491Z,96366.28
2022-11-30T02:56:41.389Z,96367.56
2022-11-30T02:59:14.584Z,96369.91
2022-11-30T03:01:49.061Z,96371.13
2022-11-30T03:04:22.097Z,96374.59
2022-11-30T03:06:55.052Z,96370.03
2022-11-30T03:09:28.059Z,96378.50
2022-11-30T03:12:01.222Z,96369.44
2022-11-30T03:14:34.598Z,96370.50
2022-11-30T03:17:10.106Z,96372.59
2022-11-30T03:19:43.366Z,96373.97
2022-11-30T03:22:16.785Z,96379.81
2022-11-30T03:24:50.355Z,96380.91
2022-11-30T03:27:24.055Z,96376.34
2022-11-30T03:29:57.031Z,96377.13
2022-11-30T03:32:31.945Z,96373.69
2022-11-30T03:35:05.392Z,96381.69
2022-11-30T03:37:38.312Z,96371.00
2022-11-30T03:40:12.843Z,96376.63
2022-11-30T03:42:46.182Z,96373.19
2022-11-30T03:45:19.319Z,96374.78
2022-11-30T03:47:53.888Z,96382.78
2022-11-30T03:50:27.019Z,96378.81
2022-11-30T03:52:59.972Z,96376.47
2022-11-30T03:55:34.238Z,96373.34
2022-11-30T03:58:07.317Z,96381.97
2022-11-30T04:00:41.896Z,96374.59
2022-11-30T04:03:16.998Z,96382.91
2022-11-30T04:05:50.163Z,96376.97
2022-11-30T04:08:23.367Z,96378.06
2022-11-30T04:10:58.067Z,96382.63
2022-11-30T04:13:31.845Z,96381.03
2022-11-30T04:16:06.559Z,96381.38
2022-11-30T04:18:41.588Z,96375.25
2022-11-30T04:21:14.865Z,96375.56
2022-11-30T04:23:47.741Z,96381.69
2022-11-30T04:26:21.086Z,96382.00
2022-11-30T04:28:53.972Z,96382.00
2022-11-30T04:31:26.974Z,96389.22
2022-11-30T04:34:01.538Z,96378.06
2022-11-30T04:36:34.786Z,96389.53
2022-11-30T04:39:07.713Z,96379.47
2022-11-30T04:41:41.250Z,96384.81
2022-11-30T04:44:14.201Z,96381.69
2022-11-30T04:46:47.195Z,96379.81
2022-11-30T04:49:21.445Z,96384.06
2022-11-30T04:51:54.653Z,96380.91
2022-11-30T04:54:27.843Z,96375.09
2022-11-30T04:57:02.993Z,96384.38
2022-11-30T04:59:36.113Z,96374.00
2022-11-30T05:02:09.501Z,96370.88
2022-11-30T05:04:43.892Z,96371.66
2022-11-30T05:07:17.190Z,96373.84
2022-11-30T05:09:50.608Z,96379.19
2022-11-30T05:12:23.736Z,96379.97
2022-11-30T05:14:56.716Z,96381.41
2022-11-30T05:17:29.585Z,96375.28
2022-11-30T05:20:04.080Z,96377.16
2022-11-30T05:22:37.186Z,96382.81
2022-11-30T05:25:10.760Z,96377.47
2022-11-30T05:27:43.831Z,96384.69
2022-11-30T05:30:17.282Z,96378.09
2022-11-30T05:32:50.428Z,96378.88
2022-11-30T05:35:25.116Z,96382.94
2022-11-30T05:37:58.284Z,96379.84
2022-11-30T05:40:32.758Z,96387.81
2022-11-30T05:43:06.209Z,96380.91
2022-11-30T05:45:39.795Z,96390.00
2022-11-30T05:48:13.095Z,96384.19
2022-11-30T05:50:47.371Z,96382.31
2022-11-30T05:53:23.399Z,96381.84
2022-11-30T05:55:56.311Z,96379.97
2022-11-30T05:58:29.709Z,96386.09
2022-11-30T06:01:02.902Z,96378.72
2022-11-30T06:03:37.019Z,96378.41
2022-11-30T06:06:11.483Z,96383.41
2022-11-30T06:08:44.495Z,96380.44
2022-11-30T06:11:17.903Z,96375.91
2022-11-30T06:13:53.475Z,96380.13
2022-11-30T06:16:26.671Z,96384.06
2022-11-30T06:19:00.788Z,96382.16
2022-11-30T06:21:35.601Z,96382.94
2022-11-30T06:24:10.226Z,96395.97
2022-11-30T06:26:43.080Z,96387.19
2022-11-30T06:29:16.345Z,96385.31
2022-11-30T06:31:49.354Z,96392.19
2022-11-30T06:34:22.657Z,96381.53
2022-11-30T06:36:58.632Z,96385.47
2022-11-30T06:40:04.275Z,96390.00
2022-11-30T06:42:25.259Z,96391.91
2022-11-30T06:44:58.280Z,96394.25
2022-11-30T06:47:31.299Z,96389.72
2022-11-30T06:50:04.710Z,96391.28
2022-11-30T06:52:39.518Z,96392.06
2022-11-30T06:55:12.490Z,96397.06
2022-11-30T06:57:45.883Z,96401.28
2022-11-30T07:00:19.394Z,96400.69
2022-11-30T07:02:52.319Z,96398.50
2022-11-30T07:05:25.665Z,96401.16
2022-11-30T07:08:00.210Z,96407.41
2022-11-30T07:10:33.419Z,96401.28
2022-11-30T07:13:06.476Z,96411.34
2022-11-30T07:15:40.036Z,96411.66
2022-11-30T07:18:13.330Z,96406.63
2022-11-30T07:20:46.590Z,96404.75
2022-11-30T07:23:38.123Z,96406.31
2022-11-30T07:26:11.298Z,96405.53
2022-11-30T07:28:46.193Z,96410.09
2022-11-30T07:31:21.569Z,96411.34
2022-11-30T07:33:54.919Z,96407.88
2022-11-30T07:36:31.331Z,96404.59
2022-11-30T07:39:06.209Z,96406.63
2022-11-30T07:41:39.452Z,96413.53
2022-11-30T07:44:12.951Z,96411.34
2022-11-30T07:46:45.839Z,96417.94
2022-11-30T07:49:18.941Z,96415.25
2022-11-30T07:51:52.007Z,96422.47
2022-11-30T07:54:26.217Z,96414.78
2022-11-30T07:56:59.094Z,96418.84
2022-11-30T07:59:31.976Z,96422.94
2022-11-30T08:02:05.420Z,96425.47
2022-11-30T08:04:38.461Z,96425.78
2022-11-30T08:07:11.400Z,96430.63
2022-11-30T08:09:46.247Z,96427.47
2022-11-30T08:12:19.188Z,96426.25
2022-11-30T08:15:18.743Z,96427.03
2022-11-30T08:17:44.931Z,96429.53
2022-11-30T08:20:18.209Z,96432.19
2022-11-30T08:22:52.911Z,96428.25
2022-11-30T08:25:27.192Z,96441.59
2022-11-30T08:28:00.313Z,96442.84
2022-11-30T08:30:33.322Z,96450.06
2022-11-30T08:33:06.512Z,96445.38
2022-11-30T08:35:39.341Z,96447.88
2022-11-30T08:38:12.484Z,96456.97
2022-11-30T08:40:46.723Z,96460.25
2022-11-30T08:43:19.600Z,96463.25
2022-11-30T08:45:54.543Z,96459.31
2022-11-30T08:48:30.002Z,96456.16
2022-11-30T08:51:03.687Z,96458.34
2022-11-30T08:53:36.844Z,96459.44
2022-11-30T08:56:14.056Z,96463.06
2022-11-30T08:58:47.991Z,96460.22
2022-11-30T09:01:22.560Z,96462.59
2022-11-30T09:03:57.279Z,96458.84
2022-11-30T09:06:31.867Z,96461.97
2022-11-30T09:09:04.945Z,96463.84
2022-11-30T09:11:39.252Z,96471.25
2022-11-30T09:14:12.280Z,96466.69
2022-11-30T09:16:45.125Z,96469.38
2022-11-30T09:19:17.948Z,96468.72
2022-11-30T09:21:52.115Z,96469.19
2022-11-30T09:24:25.542Z,96471.25
2022-11-30T09:26:59.801Z,96469.03
2022-11-30T09:29:33.554Z,96466.84
2022-11-30T09:32:10.425Z,96467.47
2022-11-30T09:34:53.404Z,96470.00
2022-11-30T09:37:26.426Z,96470.63
2022-11-30T09:40:00.380Z,96480.50
2022-11-30T09:42:47.139Z,96478.16
2022-11-30T09:45:24.884Z,96469.22
2022-11-30T09:48:18.801Z,96470.00
2022-11-30T09:50:52.621Z,96465.63
2022-11-30T09:53:30.087Z,96473.97
2022-11-30T09:56:04.330Z,96477.88
2022-11-30T09:58:49.091Z,96471.91
2022-11-30T10:01:23.095Z,96469.25
2022-11-30T10:03:58.151Z,96470.03
2022-11-30T10:06:42.563Z,96475.53
2022-11-30T10:09:30.863Z,96465.94
2022-11-30T10:12:10.484Z,96463.72
2022-11-30T10:15:16.678Z,96461.53
2022-11-30T10:17:56.742Z,96466.41
2022-11-30T10:20:53.054Z,96461.84
2022-11-30T10:23:42.367Z,96466.25
2022-11-30T10:26:17.733Z,96460.59
2022-11-30T10:28:52.900Z,96458.06
2022-11-30T10:31:34.456Z,96461.50
2022-11-30T10:34:21.258Z,96460.38
2022-11-30T10:37:04.742Z,96455.31
2022-11-30T10:39:53.960Z,96445.28
2022-11-30T10:42:33.916Z,96447.91
2022-11-30T10:45:11.646Z,96445.84
2022-11-30T10:47:51.438Z,96446.13
2022-11-30T10:50:28.352Z,96456.66
2022-11-30T10:53:02.465Z,96440.75
2022-11-30T10:55:39.987Z,96446.34
2022-11-30T10:58:20.942Z,96442.28
2022-11-30T11:01:04.692Z,96438.50
2022-11-30T11:03:39.309Z,96441.94
2022-11-30T11:06:19.765Z,96441.16
2022-11-30T11:08:52.637Z,96433.78
2022-11-30T11:11:32.606Z,96443.38
2022-11-30T11:14:20.698Z,96431.13
2022-11-30T11:16:57.036Z,96432.56
2022-11-30T11:19:37.524Z,96434.75
2022-11-30T11:22:18.610Z,96433.50
2022-11-30T11:24:54.494Z,96432.25
2022-11-30T11:27:29.676Z,96435.72
2022-11-30T11:30:07.927Z,96434.13
2022-11-30T11:32:40.968Z,96434.34
2022-11-30T11:35:37.470Z,96429.00
2022-11-30T11:38:20.365Z,96432.75
2022-11-30T11:40:55.844Z,96442.97
2022-11-30T11:43:31.136Z,96436.41
2022-11-30T11:46:12.744Z,96439.09
2022-11-30T11:48:57.615Z,96438.28
2022-11-30T11:51:33.765Z,96440.03
2022-11-30T11:54:23.970Z,96433.91
2022-11-30T11:56:57.771Z,96433.44
2022-11-30T11:59:41.866Z,96433.78
2022-11-30T12:02:28.741Z,96422.63
2022-11-30T12:05:08.040Z,96429.06
2022-11-30T12:07:47.863Z,96423.25
2022-11-30T12:10:51.312Z,96426.38
2022-11-30T12:13:23.035Z,96430.16
2022-11-30T12:16:05.598Z,96427.03
2022-11-30T12:18:50.759Z,96425.44
2022-11-30T12:21:37.246Z,96423.44
2022-11-30T12:24:35.146Z,96418.72
2022-11-30T12:27:17.691Z,96417.81
2022-11-30T12:30:02.324Z,96424.56
2022-11-30T12:32:50.094Z,96422.22
2022-11-30T12:35:35.315Z,96421.44
2022-11-30T12:38:19.152Z,96414.38
2022-11-30T12:41:01.679Z,96419.25
2022-11-30T12:43:44.162Z,96416.91
2022-11-30T12:46:24.328Z,96420.19
2022-11-30T12:49:13.395Z,96421.16
2022-11-30T12:51:53.430Z,96418.69
2022-11-30T12:54:35.043Z,96421.97
2022-11-30T12:57:17.212Z,96423.06
2022-11-30T13:00:03.014Z,96424.03
2022-11-30T13:03:12.216Z,96431.56
2022-11-30T13:05:50.316Z,96433.59
2022-11-30T13:08:28.737Z,96434.56
2022-11-30T13:11:07.300Z,96441.16
2022-11-30T13:13:50.144Z,96431.41
2022-11-30T13:16:25.907Z,96433.75
2022-11-30T13:19:02.962Z,96437.84
2022-11-30T13:21:42.292Z,96429.69
2022-11-30T13:24:21.409Z,96428.75
2022-11-30T13:27:00.500Z,96432.50
2022-11-30T13:30:13.457Z,96431.28
2022-11-30T13:32:57.816Z,96429.22
2022-11-30T13:35:53.567Z,96419.66
2022-11-30T13:38:42.058Z,96438.16
2022-11-30T13:41:21.843Z,96430.16
2022-11-30T13:43:54.681Z,96439.28
2022-11-30T13:46:28.941Z,96437.69
2022-11-30T13:49:19.092Z,96436.91
2022-11-30T13:52:19.989Z,96436.75
2022-11-30T13:54:46.656Z,96435.47
2022-11-30T13:57:55.454Z,96444.25
2022-11-30T14:01:00.967Z,96443.81
2022-11-30T14:03:35.330Z,96441.47
2022-11-30T14:06:46.627Z,96438.00
2022-11-30T14:10:09.462Z,96447.56
2022-11-30T14:12:58.699Z,96443.34
2022-11-30T14:15:53.398Z,96444.75
2022-11-30T14:18:34.476Z,96437.69
2022-11-30T14:21:17.934Z,96443.63
2022-11-30T14:23:58.026Z,96438.13
2022-11-30T14:26:37.192Z,96451.78
2022-11-30T14:29:18.780Z,96457.25
2022-11-30T14:31:57.355Z,96457.91
2022-11-30T14:34:33.885Z,96453.19
2022-11-30T14:37:17.229Z,96450.03
2022-11-30T14:39:53.702Z,96458.66
2022-11-30T14:42:30.125Z,96464.31
2022-11-30T14:45:03.312Z,96454.56
2022-11-30T14:47:37.209Z,96454.06
2022-11-30T14:50:23.021Z,96458.66
2022-11-30T14:53:21.386Z,96456.59
2022-11-30T14:56:00.003Z,96454.22
2022-11-30T14:58:41.272Z,96454.22
2022-11-30T15:01:20.004Z,96456.91
2022-11-30T15:03:55.538Z,96458.47
2022-11-30T15:06:32.309Z,96453.13
2022-11-30T15:09:05.287Z,96452.84
2022-11-30T15:11:42.380Z,96452.19
2022-11-30T15:14:17.452Z,96452.97
2022-11-30T15:16:53.222Z,96456.75
2022-11-30T15:19:28.372Z,96456.59
2022-11-30T15:22:01.822Z,96451.56
2022-11-30T15:24:34.769Z,96455.97
2022-11-30T15:27:11.425Z,96455.47
2022-11-30T15:29:51.313Z,96459.84
2022-11-30T15:32:26.298Z,96457.81
2022-11-30T15:35:00.961Z,96456.53
2022-11-30T15:37:38.790Z,96467.50
2022-11-30T15:40:17.183Z,96456.66
2022-11-30T15:42:51.615Z,96462.13
2022-11-30T15:45:28.402Z,96463.53
2022-11-30T15:48:02.646Z,96463.69
2022-11-30T15:50:41.161Z,96469.31
2022-11-30T15:53:34.722Z,96468.03
2022-11-30T15:56:09.099Z,96476.16
2022-11-30T15:58:46.536Z,96475.69
2022-11-30T16:01:24.722Z,96479.13
2022-11-30T16:04:06.189Z,96479.91
2022-11-30T16:06:47.185Z,96481.78
2022-11-30T16:09:23.282Z,96484.75
2022-11-30T16:11:58.864Z,96482.88
2022-11-30T16:14:31.737Z,96491.16
2022-11-30T16:17:09.113Z,96493.03
2022-11-30T16:19:42.351Z,96499.78
2022-11-30T16:22:16.675Z,96504.63
2022-11-30T16:24:49.530Z,96498.66
2022-11-30T16:27:22.652Z,96499.56
2022-11-30T16:29:56.009Z,96487.78
2022-11-30T16:32:30.393Z,96491.97
2022-11-30T16:35:03.247Z,96494.75
2022-11-30T16:37:36.260Z,96499.09
2022-11-30T16:40:10.056Z,96499.22
2022-11-30T16:42:43.085Z,96496.38
2022-11-30T16:45:19.404Z,96502.78
2022-11-30T16:47:53.939Z,96501.19
2022-11-30T16:50:26.835Z,96503.88
2022-11-30T16:53:00.468Z,96505.44
2022-11-30T16:55:37.727Z,96507.81
2022-11-30T16:58:10.907Z,96499.53
2022-11-30T17:00:43.968Z,96505.63
2022-11-30T17:03:22.501Z,96508.16
2022-11-30T17:05:55.321Z,96511.13
2022-11-30T17:08:28.522Z,96516.44
2022-11-30T17:11:01.984Z,96516.13
2022-11-30T17:13:34.776Z,96519.88
2022-11-30T17:16:10.366Z,96522.25
2022-11-30T17:18:44.611Z,96532.41
2022-11-30T17:21:20.562Z,96527.88
2022-11-30T17:23:53.448Z,96525.22
2022-11-30T17:26:27.343Z,96527.56
2022-11-30T17:29:00.284Z,96531.50
2022-11-30T17:31:33.867Z,96533.09
2022-11-30T17:34:08.591Z,96537.78
2022-11-30T17:36:41.450Z,96528.22
2022-11-30T17:39:14.279Z,96535.91
2022-11-30T17:41:47.208Z,96534.34
2022-11-30T17:44:20.012Z,96536.69
2022-11-30T17:46:52.973Z,96536.69
2022-11-30T17:49:27.171Z,96530.59
2022-11-30T17:52:00.177Z,96531.69
2022-11-30T17:54:33.097Z,96538.56
2022-11-30T17:57:05.924Z,96533.25
2022-11-30T17:59:38.735Z,96542.31
2022-11-30T18:02:12.597Z,96535.75
2022-11-30T18:04:47.107Z,96533.09
2022-11-30T18:07:20.276Z,96534.97
2022-11-30T18:09:53.212Z,96540.75
2022-11-30T18:12:26.089Z,96535.75
2022-11-30T18:14:58.990Z,96537.50
2022-11-30T18:17:32.154Z,96542.03
2022-11-30T18:20:07.900Z,96545.16
2022-11-30T18:22:40.860Z,96546.75
2022-11-30T18:25:15.532Z,96549.91
2022-11-30T18:27:48.450Z,96552.72
2022-11-30T18:30:21.626Z,96552.44
2022-11-30T18:32:54.465Z,96567.00
2022-11-30T18:35:28.760Z,96560.91
2022-11-30T18:38:01.628Z,96562.47
2022-11-30T18:40:34.396Z,96560.28
2022-11-30T18:43:07.263Z,96564.50
2022-11-30T18:45:40.142Z,96565.31
2022-11-30T18:48:13.016Z,96573.78
2022-11-30T18:50:47.202Z,96572.69
2022-11-30T18:53:19.981Z,96568.47
2022-11-30T18:55:52.860Z,96563.13
2022-11-30T18:58:25.919Z,96562.06
2022-11-30T19:01:07.949Z,96566.00
2022-11-30T19:03:41.413Z,96560.66
2022-11-30T19:06:38.765Z,96561.13
2022-11-30T19:09:13.797Z,96565.38
2022-11-30T19:11:47.063Z,96566.94
2022-11-30T19:14:20.125Z,96558.94
2022-11-30T19:16:53.186Z,96557.88
2022-11-30T19:19:28.105Z,96559.44
2022-11-30T19:22:02.626Z,96558.84
2022-11-30T19:24:36.523Z,96560.72
2022-11-30T19:27:09.460Z,96561.19
2022-11-30T19:29:42.369Z,96560.41
2022-11-30T19:32:15.206Z,96555.84
2022-11-30T19:34:51.108Z,96558.53
2022-11-30T19:37:25.706Z,96556.66
2022-11-30T19:39:58.623Z,96563.53
2022-11-30T19:42:32.259Z,96561.19
2022-11-30T19:45:10.811Z,96561.50
2022-11-30T19:47:43.781Z,96563.53
2022-11-30T19:50:16.747Z,96561.19
2022-11-30T19:52:51.238Z,96563.25
2022-11-30T19:55:26.286Z,96561.38
2022-11-30T19:57:59.168Z,96558.41
2022-11-30T20:00:32.305Z,96559.19
2022-11-30T20:03:09.753Z,96556.22
2022-11-30T20:05:50.741Z,96558.28
2022-11-30T20:08:25.203Z,96564.38
2022-11-30T20:10:58.427Z,96560.63
2022-11-30T20:13:34.475Z,96556.41
2022-11-30T20:16:09.649Z,96557.97
2022-11-30T20:18:46.245Z,96557.97
2022-11-30T20:21:28.356Z,96551.25
2022-11-30T20:24:14.025Z,96553.63
2022-11-30T20:26:47.091Z,96547.31
2022-11-30T20:29:19.867Z,96548.91
2022-11-30T20:31:53.008Z,96549.69
2022-11-30T20:34:33.998Z,96557.19
2022-11-30T20:37:07.577Z,96555.13
2022-11-30T20:39:45.663Z,96562.31
2022-11-30T20:42:19.296Z,96563.44
2022-11-30T20:44:52.160Z,96555.25
2022-11-30T20:47:25.163Z,96556.66
2022-11-30T20:49:58.505Z,96556.47
2022-11-30T20:52:31.428Z,96554.72
2022-11-30T20:55:06.051Z,96561.75
2022-11-30T20:57:38.890Z,96557.94
2022-11-30T21:00:13.471Z,96560.41
2022-11-30T21:02:46.451Z,96552.88
2022-11-30T21:05:19.948Z,96554.72
2022-11-30T21:07:52.988Z,96560.34
2022-11-30T21:10:27.210Z,96558.78
2022-11-30T21:13:00.070Z,96559.84
2022-11-30T21:15:33.102Z,96563.31
2022-11-30T21:18:06.629Z,96558.00
2022-11-30T21:20:39.473Z,96559.06
2022-11-30T21:23:12.281Z,96564.88
2022-11-30T21:25:46.823Z,96560.34
2022-11-30T21:28:20.418Z,96564.88
2022-11-30T21:30:53.250Z,96563.81
2022-11-30T21:33:26.249Z,96565.38
2022-11-30T21:35:59.071Z,96576.81
2022-11-30T21:38:31.931Z,96569.13
2022-11-30T21:41:06.633Z,96570.69
2022-11-30T21:43:39.692Z,96564.88
2022-11-30T21:46:14.313Z,96563.81
2022-11-30T21:48:49.505Z,96572.56
2022-11-30T21:51:24.081Z,96572.88
2022-11-30T21:53:58.860Z,96570.50
2022-11-30T21:56:34.735Z,96573.16
2022-11-30T21:59:09.414Z,96571.13
2022-11-30T22:01:44.731Z,96566.88
2022-11-30T22:04:17.664Z,96569.84
2022-11-30T22:06:50.526Z,96564.81
2022-11-30T22:09:23.395Z,96572.00
2022-11-30T22:11:57.791Z,96568.56
2022-11-30T22:14:30.609Z,96570.44
2022-11-30T22:17:03.449Z,96573.41
2022-11-30T22:19:36.305Z,96568.41
2022-11-30T22:22:09.071Z,96578.25
2022-11-30T22:24:41.916Z,96573.22
2022-11-30T22:27:16.296Z,96572.72
2022-11-30T22:29:50.930Z,96577.56
2022-11-30T22:32:23.799Z,96573.31
2022-11-30T22:34:56.667Z,96569.38
2022-11-30T22:37:29.514Z,96571.84
2022-11-30T22:40:02.467Z,96560.25
2022-11-30T22:42:38.095Z,96561.63
2022-11-30T22:45:11.486Z,96566.28
2022-11-30T22:47:44.384Z,96555.25
2022-11-30T22:50:17.485Z,96556.44
2022-11-30T22:53:04.903Z,96551.53
2022-11-30T22:55:37.998Z,96558.53
2022-11-30T22:58:12.316Z,96562.25
2022-11-30T23:00:45.260Z,96554.13
2022-11-30T23:03:18.235Z,96568.19
2022-11-30T23:05:51.184Z,96563.19
2022-11-30T23:08:23.971Z,96554.41
2022-11-30T23:10:58.312Z,96568.19
2022-11-30T23:13:32.591Z,96560.72
2022-11-30T23:16:06.329Z,96568.38
2022-11-30T23:18:41.510Z,96568.88
2022-11-30T23:21:16.870Z,96560.31
2022-11-30T23:57:42.824Z,96543.56
